createdAt,value
2023-09-30T00:00:26.089Z,17.07
2023-09-30T00:01:26.068Z,17.05
2023-09-30T00:02:25.963Z,17.00
2023-09-30T00:03:26.785Z,16.99
2023-09-30T00:04:26.018Z,16.98
2023-09-30T00:05:25.918Z,16.95
2023-09-30T00:06:25.980Z,16.91
2023-09-30T00:07:25.908Z,16.88
2023-09-30T00:08:25.928Z,16.88
2023-09-30T00:09:25.882Z,16.85
2023-09-30T00:10:25.899Z,16.81
2023-09-30T00:11:25.867Z,16.80
2023-09-30T00:12:25.885Z,16.80
2023-09-30T00:13:25.834Z,16.77
2023-09-30T00:14:25.840Z,16.75
2023-09-30T00:15:26.019Z,16.72
2023-09-30T00:16:25.876Z,16.70
2023-09-30T00:17:25.781Z,16.69
2023-09-30T00:18:25.807Z,16.67
2023-09-30T00:19:25.758Z,16.65
2023-09-30T00:20:26.280Z,16.66
2023-09-30T00:21:26.615Z,16.63
2023-09-30T00:22:25.735Z,16.60
2023-09-30T00:23:25.716Z,16.62
2023-09-30T00:24:25.709Z,16.60
2023-09-30T00:25:25.716Z,16.57
2023-09-30T00:26:25.683Z,16.55
2023-09-30T00:27:25.715Z,16.51
2023-09-30T00:28:25.658Z,16.50
2023-09-30T00:29:25.629Z,16.47
2023-09-30T00:30:25.734Z,16.47
2023-09-30T00:31:25.679Z,16.44
2023-09-30T00:32:25.624Z,16.42
2023-09-30T00:33:25.652Z,16.36
2023-09-30T00:34:25.590Z,16.34
2023-09-30T00:35:25.567Z,16.30
2023-09-30T00:36:26.130Z,16.29
2023-09-30T00:37:25.548Z,16.27
2023-09-30T00:38:25.550Z,16.23
2023-09-30T00:39:25.561Z,16.18
2023-09-30T00:40:25.527Z,16.18
2023-09-30T00:41:25.548Z,16.17
2023-09-30T00:42:25.535Z,16.16
2023-09-30T00:43:25.506Z,16.14
2023-09-30T00:44:25.461Z,16.13
2023-09-30T00:45:25.510Z,16.11
2023-09-30T00:46:25.491Z,16.11
2023-09-30T00:47:25.523Z,16.08
2023-09-30T00:48:25.971Z,16.06
2023-09-30T00:49:25.415Z,16.01
2023-09-30T00:50:25.405Z,15.98
2023-09-30T00:51:25.475Z,15.96
2023-09-30T00:52:25.402Z,15.95
2023-09-30T00:53:25.376Z,15.92
2023-09-30T00:54:25.406Z,15.89
2023-09-30T00:55:25.344Z,15.89
2023-09-30T00:56:26.201Z,15.88
2023-09-30T00:57:26.080Z,15.81
2023-09-30T00:58:25.307Z,15.81
2023-09-30T00:59:25.303Z,15.78
2023-09-30T01:00:25.331Z,15.78
2023-09-30T01:01:25.319Z,15.76
2023-09-30T01:02:25.295Z,15.74
2023-09-30T01:03:25.494Z,15.73
2023-09-30T01:04:25.312Z,15.70
2023-09-30T01:05:25.234Z,15.68
2023-09-30T01:06:25.279Z,15.66
2023-09-30T01:07:25.222Z,15.62
2023-09-30T01:08:25.211Z,15.60
2023-09-30T01:09:25.217Z,15.59
2023-09-30T01:10:25.167Z,15.58
2023-09-30T01:11:26.106Z,15.56
2023-09-30T01:12:25.182Z,15.55
2023-09-30T01:13:25.139Z,15.55
2023-09-30T01:14:25.122Z,15.53
2023-09-30T01:15:25.165Z,15.52
2023-09-30T01:16:25.687Z,15.48
2023-09-30T01:17:25.121Z,15.48
2023-09-30T01:18:25.705Z,15.46
2023-09-30T01:19:25.084Z,15.44
2023-09-30T01:20:25.077Z,15.43
2023-09-30T01:21:25.105Z,15.43
2023-09-30T01:22:25.055Z,15.41
2023-09-30T01:23:25.033Z,15.41
2023-09-30T01:24:25.549Z,15.40
2023-09-30T01:25:25.005Z,15.40
2023-09-30T01:26:24.997Z,15.35
2023-09-30T01:27:24.989Z,15.31
2023-09-30T01:28:24.980Z,15.31
2023-09-30T01:29:24.950Z,15.31
2023-09-30T01:30:24.968Z,15.30
2023-09-30T01:31:25.002Z,15.28
2023-09-30T01:32:24.932Z,15.27
2023-09-30T01:33:24.930Z,15.27
2023-09-30T01:34:24.889Z,15.25
2023-09-30T01:35:24.890Z,15.23
2023-09-30T01:36:24.948Z,15.22
2023-09-30T01:37:24.892Z,15.20
2023-09-30T01:38:24.864Z,15.19
2023-09-30T01:39:24.943Z,15.18
2023-09-30T01:40:24.819Z,15.16
2023-09-30T01:41:24.815Z,15.16
2023-09-30T01:42:25.494Z,15.19
2023-09-30T01:43:24.820Z,15.15
2023-09-30T01:44:24.782Z,15.13
2023-09-30T01:45:25.752Z,15.13
2023-09-30T01:46:24.773Z,15.12
2023-09-30T01:47:24.798Z,15.12
2023-09-30T01:48:24.784Z,15.11
2023-09-30T01:49:24.721Z,15.09
2023-09-30T01:50:25.683Z,15.07
2023-09-30T01:51:24.773Z,15.07
2023-09-30T01:52:24.681Z,15.04
2023-09-30T01:53:24.699Z,15.05
2023-09-30T01:54:24.740Z,15.04
2023-09-30T01:55:24.654Z,15.03
2023-09-30T01:56:24.681Z,15.00
2023-09-30T01:57:24.649Z,14.97
2023-09-30T01:58:24.631Z,14.97
2023-09-30T01:59:24.614Z,14.95
2023-09-30T02:00:24.648Z,14.93
2023-09-30T02:01:24.609Z,14.86
2023-09-30T02:02:24.576Z,14.87
2023-09-30T02:03:24.857Z,14.85
2023-09-30T02:04:24.697Z,14.86
2023-09-30T02:05:24.543Z,14.85
2023-09-30T02:06:24.539Z,14.80
2023-09-30T02:07:24.532Z,14.80
2023-09-30T02:08:24.924Z,14.75
2023-09-30T02:09:24.523Z,14.75
2023-09-30T02:10:24.478Z,14.78
2023-09-30T02:11:24.465Z,14.74
2023-09-30T02:12:24.546Z,14.74
2023-09-30T02:13:25.602Z,14.69
2023-09-30T02:14:24.415Z,14.71
2023-09-30T02:15:24.463Z,14.67
2023-09-30T02:16:24.483Z,14.69
2023-09-30T02:17:25.236Z,14.69
2023-09-30T02:18:24.403Z,14.67
2023-09-30T02:19:24.393Z,14.64
2023-09-30T02:20:25.130Z,14.64
2023-09-30T02:21:24.364Z,14.63
2023-09-30T02:22:24.340Z,14.64
2023-09-30T02:23:24.322Z,14.61
2023-09-30T02:24:24.454Z,14.61
2023-09-30T02:25:24.313Z,14.63
2023-09-30T02:26:24.281Z,14.61
2023-09-30T02:27:24.341Z,14.63
2023-09-30T02:28:24.266Z,14.63
2023-09-30T02:29:24.283Z,14.61
2023-09-30T02:30:25.665Z,14.60
2023-09-30T02:31:24.257Z,14.56
2023-09-30T02:32:24.213Z,14.54
2023-09-30T02:33:24.349Z,14.52
2023-09-30T02:34:24.238Z,14.52
2023-09-30T02:35:24.192Z,14.52
2023-09-30T02:36:24.254Z,14.46
2023-09-30T02:37:24.170Z,14.46
2023-09-30T02:38:24.192Z,14.46
2023-09-30T02:39:24.301Z,14.46
2023-09-30T02:40:24.130Z,14.45
2023-09-30T02:41:24.118Z,14.41
2023-09-30T02:42:24.168Z,14.42
2023-09-30T02:43:24.122Z,14.44
2023-09-30T02:44:24.099Z,14.41
2023-09-30T02:45:24.092Z,14.39
2023-09-30T02:46:24.058Z,14.39
2023-09-30T02:47:24.069Z,14.41
2023-09-30T02:48:24.126Z,14.39
2023-09-30T02:49:24.053Z,14.39
2023-09-30T02:50:24.565Z,14.36
2023-09-30T02:51:24.071Z,14.38
2023-09-30T02:52:23.987Z,14.36
2023-09-30T02:53:24.010Z,14.35
2023-09-30T02:54:24.001Z,14.35
2023-09-30T02:55:23.969Z,14.31
2023-09-30T02:56:23.940Z,14.35
2023-09-30T02:57:23.962Z,14.31
2023-09-30T02:58:23.943Z,14.31
2023-09-30T02:59:23.945Z,14.31
2023-09-30T03:00:24.065Z,14.29
2023-09-30T03:01:24.076Z,14.29
2023-09-30T03:02:24.413Z,14.26
2023-09-30T03:03:24.435Z,14.27
2023-09-30T03:04:23.911Z,14.24
2023-09-30T03:05:23.852Z,14.26
2023-09-30T03:06:23.850Z,14.26
2023-09-30T03:07:23.867Z,14.24
2023-09-30T03:08:23.840Z,14.24
2023-09-30T03:09:23.923Z,14.23
2023-09-30T03:10:23.776Z,14.21
2023-09-30T03:11:24.442Z,14.20
2023-09-30T03:12:23.797Z,14.21
2023-09-30T03:13:23.774Z,14.20
2023-09-30T03:14:23.733Z,14.17
2023-09-30T03:15:23.807Z,14.13
2023-09-30T03:16:23.721Z,14.12
2023-09-30T03:17:23.713Z,14.09
2023-09-30T03:18:24.553Z,14.08
2023-09-30T03:19:23.688Z,14.08
2023-09-30T03:20:23.693Z,14.06
2023-09-30T03:21:24.240Z,14.05
2023-09-30T03:22:23.644Z,14.02
2023-09-30T03:23:23.662Z,14.02
2023-09-30T03:24:23.648Z,14.01
2023-09-30T03:25:23.775Z,14.01
2023-09-30T03:26:23.615Z,13.96
2023-09-30T03:27:24.169Z,13.93
2023-09-30T03:28:23.603Z,13.94
2023-09-30T03:29:23.572Z,13.93
2023-09-30T03:30:24.099Z,13.93
2023-09-30T03:31:23.589Z,13.91
2023-09-30T03:32:23.531Z,13.94
2023-09-30T03:33:23.639Z,13.93
2023-09-30T03:34:23.502Z,13.90
2023-09-30T03:35:23.521Z,13.88
2023-09-30T03:36:23.485Z,13.87
2023-09-30T03:37:24.260Z,13.83
2023-09-30T03:38:23.473Z,13.83
2023-09-30T03:39:23.475Z,13.79
2023-09-30T03:40:23.452Z,13.80
2023-09-30T03:41:23.451Z,13.80
2023-09-30T03:42:23.464Z,13.80
2023-09-30T03:43:23.422Z,13.81
2023-09-30T03:44:23.381Z,13.80
2023-09-30T03:45:23.433Z,13.79
2023-09-30T03:46:23.387Z,13.79
2023-09-30T03:47:23.355Z,13.79
2023-09-30T03:48:23.384Z,13.76
2023-09-30T03:49:23.416Z,13.76
2023-09-30T03:50:23.344Z,13.75
2023-09-30T03:51:23.370Z,13.73
2023-09-30T03:52:23.292Z,13.75
2023-09-30T03:53:23.315Z,13.75
2023-09-30T03:54:23.313Z,13.72
2023-09-30T03:55:23.270Z,13.71
2023-09-30T03:56:23.275Z,13.71
2023-09-30T03:57:23.284Z,13.69
2023-09-30T03:58:23.238Z,13.68
2023-09-30T03:59:23.219Z,13.66
2023-09-30T04:00:23.278Z,13.66
2023-09-30T04:01:23.236Z,13.65
2023-09-30T04:02:23.180Z,13.66
2023-09-30T04:03:23.298Z,13.66
2023-09-30T04:04:23.229Z,13.66
2023-09-30T04:05:23.150Z,13.68
2023-09-30T04:06:23.189Z,13.66
2023-09-30T04:07:23.157Z,13.68
2023-09-30T04:08:23.112Z,13.65
2023-09-30T04:09:23.117Z,13.66
2023-09-30T04:10:23.087Z,13.66
2023-09-30T04:11:23.094Z,13.65
2023-09-30T04:12:23.118Z,13.63
2023-09-30T04:13:23.077Z,13.66
2023-09-30T04:14:23.040Z,13.63
2023-09-30T04:15:23.084Z,13.63
2023-09-30T04:16:23.028Z,13.63
2023-09-30T04:17:23.016Z,13.63
2023-09-30T04:18:23.028Z,13.61
2023-09-30T04:19:22.994Z,13.62
2023-09-30T04:20:23.001Z,13.62
2023-09-30T04:21:22.999Z,13.61
2023-09-30T04:22:22.948Z,13.55
2023-09-30T04:23:22.950Z,13.54
2023-09-30T04:24:22.946Z,13.53
2023-09-30T04:25:22.917Z,13.53
2023-09-30T04:26:22.920Z,13.48
2023-09-30T04:27:23.025Z,13.47
2023-09-30T04:28:22.881Z,13.47
2023-09-30T04:29:22.894Z,13.44
2023-09-30T04:30:22.921Z,13.44
2023-09-30T04:31:23.264Z,13.39
2023-09-30T04:32:22.982Z,13.39
2023-09-30T04:33:22.904Z,13.36
2023-09-30T04:34:22.844Z,13.38
2023-09-30T04:35:22.933Z,13.39
2023-09-30T04:36:22.818Z,13.39
2023-09-30T04:37:22.830Z,13.41
2023-09-30T04:38:22.776Z,13.41
2023-09-30T04:39:22.787Z,13.41
2023-09-30T04:40:22.735Z,13.39
2023-09-30T04:41:22.762Z,13.36
2023-09-30T04:42:22.756Z,13.39
2023-09-30T04:43:22.709Z,13.36
2023-09-30T04:44:22.704Z,13.36
2023-09-30T04:45:22.772Z,13.35
2023-09-30T04:46:22.745Z,13.35
2023-09-30T04:47:22.676Z,13.36
2023-09-30T04:48:22.655Z,13.35
2023-09-30T04:49:22.646Z,13.32
2023-09-30T04:50:22.641Z,13.36
2023-09-30T04:51:22.652Z,13.35
2023-09-30T04:52:22.602Z,13.36
2023-09-30T04:53:22.605Z,13.35
2023-09-30T04:54:22.582Z,13.36
2023-09-30T04:55:22.583Z,13.32
2023-09-30T04:56:22.590Z,13.32
2023-09-30T04:57:22.602Z,13.31
2023-09-30T04:58:24.996Z,13.29
2023-09-30T04:59:22.518Z,13.28
2023-09-30T05:00:23.545Z,13.28
2023-09-30T05:01:22.594Z,13.29
2023-09-30T05:02:22.493Z,13.29
2023-09-30T05:03:23.325Z,13.28
2023-09-30T05:04:22.506Z,13.27
2023-09-30T05:05:22.451Z,13.25
2023-09-30T05:06:22.494Z,13.25
2023-09-30T05:07:22.427Z,13.21
2023-09-30T05:08:22.431Z,13.22
2023-09-30T05:09:22.407Z,13.24
2023-09-30T05:10:22.416Z,13.24
2023-09-30T05:11:22.400Z,13.24
2023-09-30T05:12:22.460Z,13.22
2023-09-30T05:13:22.364Z,13.22
2023-09-30T05:14:22.372Z,13.24
2023-09-30T05:15:22.383Z,13.25
2023-09-30T05:16:22.513Z,13.25
2023-09-30T05:17:22.880Z,13.24
2023-09-30T05:18:22.436Z,13.24
2023-09-30T05:19:22.292Z,13.24
2023-09-30T05:20:22.315Z,13.24
2023-09-30T05:21:22.316Z,13.24
2023-09-30T05:22:22.255Z,13.25
2023-09-30T05:23:22.253Z,13.24
2023-09-30T05:24:22.277Z,13.24
2023-09-30T05:25:22.210Z,13.24
2023-09-30T05:26:22.237Z,13.24
2023-09-30T05:27:22.818Z,13.25
2023-09-30T05:28:22.188Z,13.28
2023-09-30T05:29:22.169Z,13.27
2023-09-30T05:30:22.198Z,13.27
2023-09-30T05:31:22.279Z,13.28
2023-09-30T05:32:22.148Z,13.28
2023-09-30T05:33:22.136Z,13.28
2023-09-30T05:34:22.117Z,13.27
2023-09-30T05:35:22.099Z,13.24
2023-09-30T05:36:22.159Z,13.28
2023-09-30T05:37:22.081Z,13.27
2023-09-30T05:38:22.076Z,13.28
2023-09-30T05:39:22.079Z,13.28
2023-09-30T05:40:22.055Z,13.27
2023-09-30T05:41:22.046Z,13.28
2023-09-30T05:42:22.032Z,13.28
2023-09-30T05:43:22.012Z,13.28
2023-09-30T05:44:21.997Z,13.29
2023-09-30T05:45:22.021Z,13.28
2023-09-30T05:46:22.030Z,13.28
2023-09-30T05:47:21.983Z,13.27
2023-09-30T05:48:22.040Z,13.29
2023-09-30T05:49:21.944Z,13.36
2023-09-30T05:50:21.952Z,13.35
2023-09-30T05:51:21.942Z,13.38
2023-09-30T05:52:21.961Z,13.41
2023-09-30T05:53:21.927Z,13.46
2023-09-30T05:54:21.928Z,13.41
2023-09-30T05:55:21.957Z,13.44
2023-09-30T05:56:21.922Z,13.46
2023-09-30T05:57:21.900Z,13.50
2023-09-30T05:58:22.026Z,13.50
2023-09-30T05:59:21.829Z,13.53
2023-09-30T06:00:21.916Z,13.54
2023-09-30T06:01:21.845Z,13.57
2023-09-30T06:02:21.808Z,13.65
2023-09-30T06:03:21.868Z,13.68
2023-09-30T06:04:21.814Z,13.73
2023-09-30T06:05:21.748Z,13.76
2023-09-30T06:06:21.767Z,13.80
2023-09-30T06:07:21.733Z,13.86
2023-09-30T06:08:21.755Z,13.90
2023-09-30T06:09:21.723Z,13.91
2023-09-30T06:10:21.700Z,13.94
2023-09-30T06:11:21.684Z,13.98
2023-09-30T06:12:21.694Z,14.02
2023-09-30T06:13:21.696Z,14.04
2023-09-30T06:14:21.665Z,14.08
2023-09-30T06:15:21.689Z,14.11
2023-09-30T06:16:21.702Z,14.21
2023-09-30T06:17:21.613Z,14.48
2023-09-30T06:18:21.644Z,14.86
2023-09-30T06:19:21.612Z,15.35
2023-09-30T06:20:21.585Z,15.38
2023-09-30T06:21:21.651Z,15.41
2023-09-30T06:22:21.569Z,15.33
2023-09-30T06:23:21.580Z,15.09
2023-09-30T06:24:21.596Z,14.98
2023-09-30T06:25:21.621Z,14.91
2023-09-30T06:26:21.518Z,14.78
2023-09-30T06:27:21.506Z,14.67
2023-09-30T06:28:21.493Z,14.60
2023-09-30T06:29:21.508Z,14.57
2023-09-30T06:30:21.721Z,14.49
2023-09-30T06:31:21.515Z,14.41
2023-09-30T06:32:21.450Z,14.29
2023-09-30T06:33:21.460Z,14.23
2023-09-30T06:34:21.428Z,14.19
2023-09-30T06:35:23.351Z,14.13
2023-09-30T06:36:21.446Z,14.08
2023-09-30T06:37:21.382Z,14.01
2023-09-30T06:38:21.381Z,14.01
2023-09-30T06:39:21.376Z,14.01
2023-09-30T06:40:21.402Z,13.99
2023-09-30T06:41:21.335Z,13.99
2023-09-30T06:42:21.335Z,14.04
2023-09-30T06:43:21.314Z,14.04
2023-09-30T06:44:21.319Z,14.05
2023-09-30T06:45:21.360Z,14.02
2023-09-30T06:46:21.306Z,14.02
2023-09-30T06:47:21.268Z,14.04
2023-09-30T06:48:21.274Z,14.04
2023-09-30T06:49:21.274Z,14.02
2023-09-30T06:50:21.240Z,14.04
2023-09-30T06:51:21.270Z,14.06
2023-09-30T06:52:21.224Z,14.04
2023-09-30T06:53:21.201Z,14.05
2023-09-30T06:54:21.204Z,14.06
2023-09-30T06:55:21.181Z,14.08
2023-09-30T06:56:21.196Z,14.11
2023-09-30T06:57:21.205Z,14.12
2023-09-30T06:58:21.142Z,14.08
2023-09-30T06:59:21.139Z,14.01
2023-09-30T07:00:21.170Z,14.05
2023-09-30T07:01:21.173Z,14.06
2023-09-30T07:02:21.104Z,14.08
2023-09-30T07:03:24.064Z,14.11
2023-09-30T07:04:21.180Z,14.21
2023-09-30T07:05:21.061Z,14.24
2023-09-30T07:06:21.095Z,14.24
2023-09-30T07:07:21.085Z,14.24
2023-09-30T07:08:21.028Z,14.27
2023-09-30T07:09:21.520Z,14.30
2023-09-30T07:10:21.037Z,14.35
2023-09-30T07:11:20.997Z,14.41
2023-09-30T07:12:21.039Z,14.44
2023-09-30T07:13:20.967Z,14.46
2023-09-30T07:14:20.963Z,14.49
2023-09-30T07:15:20.984Z,14.54
2023-09-30T07:16:20.972Z,14.54
2023-09-30T07:17:20.970Z,14.56
2023-09-30T07:18:21.070Z,14.56
2023-09-30T07:19:20.895Z,14.60
2023-09-30T07:20:20.917Z,14.53
2023-09-30T07:21:20.900Z,14.54
2023-09-30T07:22:29.839Z,14.59
2023-09-30T07:23:21.151Z,14.61
2023-09-30T07:24:20.871Z,14.61
2023-09-30T07:25:20.850Z,14.54
2023-09-30T07:26:20.834Z,14.59
2023-09-30T07:27:27.692Z,14.59
2023-09-30T07:28:20.804Z,14.53
2023-09-30T07:29:20.790Z,14.56
2023-09-30T07:30:20.867Z,14.56
2023-09-30T07:31:20.800Z,14.59
2023-09-30T07:32:20.767Z,14.60
2023-09-30T07:33:20.857Z,14.64
2023-09-30T07:34:20.827Z,14.66
2023-09-30T07:35:20.738Z,14.67
2023-09-30T07:36:20.737Z,14.69
2023-09-30T07:37:20.689Z,14.71
2023-09-30T07:38:20.694Z,14.71
2023-09-30T07:39:20.705Z,14.67
2023-09-30T07:40:20.690Z,14.72
2023-09-30T07:41:20.657Z,14.71
2023-09-30T07:42:20.652Z,14.72
2023-09-30T07:43:20.628Z,14.72
2023-09-30T07:44:20.612Z,14.75
2023-09-30T07:45:20.636Z,14.74
2023-09-30T07:46:20.721Z,14.74
2023-09-30T07:47:20.584Z,14.71
2023-09-30T07:48:20.615Z,14.69
2023-09-30T07:49:20.544Z,14.69
2023-09-30T07:50:20.601Z,14.66
2023-09-30T07:51:20.560Z,14.66
2023-09-30T07:52:20.527Z,14.66
2023-09-30T07:53:20.512Z,14.63
2023-09-30T07:55:20.483Z,14.63
2023-09-30T07:56:20.469Z,14.67
2023-09-30T07:57:20.505Z,14.67
2023-09-30T07:58:20.445Z,14.69
2023-09-30T07:59:20.435Z,14.71
2023-09-30T08:00:20.442Z,14.69
2023-09-30T08:01:20.439Z,14.69
2023-09-30T08:02:20.426Z,14.72
2023-09-30T08:03:20.450Z,14.71
2023-09-30T08:04:20.460Z,14.74
2023-09-30T08:05:20.365Z,14.75
2023-09-30T08:06:20.421Z,14.80
2023-09-30T08:07:20.379Z,14.80
2023-09-30T08:08:20.344Z,14.80
2023-09-30T08:09:20.381Z,14.85
2023-09-30T08:10:20.316Z,14.86
2023-09-30T08:11:20.301Z,14.90
2023-09-30T08:12:20.348Z,14.94
2023-09-30T08:13:20.276Z,14.97
2023-09-30T08:14:20.276Z,15.01
2023-09-30T08:15:20.360Z,15.03
2023-09-30T08:16:22.165Z,15.07
2023-09-30T08:17:20.255Z,15.13
2023-09-30T08:18:20.256Z,15.18
2023-09-30T08:19:20.775Z,15.23
2023-09-30T08:20:20.215Z,15.30
2023-09-30T08:21:20.228Z,15.34
2023-09-30T08:22:20.215Z,15.34
2023-09-30T08:23:20.167Z,15.40
2023-09-30T08:24:20.233Z,15.41
2023-09-30T08:25:20.137Z,15.46
2023-09-30T08:26:20.162Z,15.52
2023-09-30T08:27:20.162Z,15.56
2023-09-30T08:28:20.124Z,15.66
2023-09-30T08:29:20.092Z,15.66
2023-09-30T08:30:20.154Z,15.70
2023-09-30T08:31:20.117Z,15.68
2023-09-30T08:32:20.091Z,15.68
2023-09-30T08:33:20.084Z,15.68
2023-09-30T08:34:20.049Z,15.66
2023-09-30T08:35:20.042Z,15.59
2023-09-30T08:36:20.275Z,15.59
2023-09-30T08:37:20.027Z,15.60
2023-09-30T08:38:20.012Z,15.66
2023-09-30T08:39:20.034Z,15.68
2023-09-30T08:40:19.978Z,15.74
2023-09-30T08:41:19.956Z,15.78
2023-09-30T08:42:20.020Z,15.84
2023-09-30T08:43:20.017Z,15.84
2023-09-30T08:44:19.956Z,15.84
2023-09-30T08:45:19.941Z,15.86
2023-09-30T08:46:19.996Z,15.84
2023-09-30T08:47:19.896Z,15.85
2023-09-30T08:48:19.900Z,15.81
2023-09-30T08:49:19.895Z,15.84
2023-09-30T08:50:19.865Z,15.81
2023-09-30T08:51:21.727Z,15.80
2023-09-30T08:52:19.845Z,15.80
2023-09-30T08:53:19.818Z,15.81
2023-09-30T08:54:19.868Z,15.86
2023-09-30T08:55:19.800Z,15.91
2023-09-30T08:56:19.802Z,15.92
2023-09-30T08:57:19.817Z,15.99
2023-09-30T08:58:19.785Z,16.07
2023-09-30T08:59:19.782Z,16.13
2023-09-30T09:00:19.775Z,16.18
2023-09-30T09:01:19.771Z,16.25
2023-09-30T09:02:19.732Z,16.33
2023-09-30T09:03:19.781Z,16.37
2023-09-30T09:04:19.811Z,16.41
2023-09-30T09:05:19.682Z,16.47
2023-09-30T09:06:19.694Z,16.52
2023-09-30T09:07:19.658Z,16.55
2023-09-30T09:08:19.661Z,16.52
2023-09-30T09:09:19.688Z,16.55
2023-09-30T09:10:19.661Z,16.60
2023-09-30T09:11:19.623Z,16.65
2023-09-30T09:12:19.629Z,16.66
2023-09-30T09:13:19.599Z,16.66
2023-09-30T09:14:19.580Z,16.70
2023-09-30T09:15:19.656Z,16.73
2023-09-30T09:16:19.717Z,16.78
2023-09-30T09:17:19.610Z,16.84
2023-09-30T09:18:19.565Z,16.84
2023-09-30T09:19:19.526Z,16.84
2023-09-30T09:20:19.534Z,16.81
2023-09-30T09:21:19.563Z,16.75
2023-09-30T09:22:19.486Z,16.78
2023-09-30T09:23:19.492Z,16.80
2023-09-30T09:24:19.478Z,16.84
2023-09-30T09:25:19.500Z,16.87
2023-09-30T09:26:19.445Z,16.90
2023-09-30T09:27:19.501Z,16.92
2023-09-30T09:28:19.405Z,17.00
2023-09-30T09:29:19.416Z,17.05
2023-09-30T09:30:19.654Z,17.09
2023-09-30T09:31:19.491Z,17.12
2023-09-30T09:32:19.358Z,17.18
2023-09-30T09:33:19.356Z,17.22
2023-09-30T09:34:19.336Z,17.25
2023-09-30T09:35:19.338Z,17.25
2023-09-30T09:36:19.355Z,17.27
2023-09-30T09:37:19.340Z,17.33
2023-09-30T09:38:19.292Z,17.38
2023-09-30T09:39:19.330Z,17.35
2023-09-30T09:40:19.272Z,17.32
2023-09-30T09:41:19.306Z,17.27
2023-09-30T09:42:19.249Z,17.28
2023-09-30T09:43:19.244Z,17.27
2023-09-30T09:44:19.231Z,17.27
2023-09-30T09:45:19.217Z,17.32
2023-09-30T09:46:19.273Z,17.36
2023-09-30T09:47:19.208Z,17.40
2023-09-30T09:48:19.168Z,17.42
2023-09-30T09:49:19.211Z,17.47
2023-09-30T09:50:19.160Z,17.54
2023-09-30T09:51:19.164Z,17.57
2023-09-30T09:52:19.233Z,17.65
2023-09-30T09:53:19.124Z,17.71
2023-09-30T09:54:19.110Z,17.73
2023-09-30T09:55:19.127Z,17.68
2023-09-30T09:56:19.109Z,17.73
2023-09-30T09:57:19.083Z,17.83
2023-09-30T09:58:19.061Z,17.83
2023-09-30T09:59:19.054Z,17.92
2023-09-30T10:00:19.060Z,17.98
2023-09-30T10:01:19.120Z,18.05
2023-09-30T10:02:19.150Z,18.07
2023-09-30T10:03:19.049Z,18.10
2023-09-30T10:04:18.990Z,18.13
2023-09-30T10:05:19.036Z,18.10
2023-09-30T10:06:19.022Z,18.14
2023-09-30T10:07:18.969Z,18.17
2023-09-30T10:08:18.938Z,18.17
2023-09-30T10:09:18.967Z,18.19
2023-09-30T10:10:18.926Z,18.20
2023-09-30T10:11:18.927Z,18.21
2023-09-30T10:12:18.927Z,18.17
2023-09-30T10:13:18.893Z,18.20
2023-09-30T10:14:18.879Z,18.20
2023-09-30T10:15:18.877Z,18.25
2023-09-30T10:16:18.869Z,18.25
2023-09-30T10:17:18.868Z,18.25
2023-09-30T10:18:18.840Z,18.26
2023-09-30T10:19:19.028Z,18.28
2023-09-30T10:20:18.812Z,18.28
2023-09-30T10:21:18.846Z,18.31
2023-09-30T10:22:18.816Z,18.42
2023-09-30T10:23:18.987Z,18.50
2023-09-30T10:24:18.758Z,18.74
2023-09-30T10:25:18.801Z,18.90
2023-09-30T10:26:18.754Z,19.06
2023-09-30T10:27:18.746Z,19.06
2023-09-30T10:28:18.741Z,19.09
2023-09-30T10:29:18.721Z,19.09
2023-09-30T10:30:18.719Z,19.09
2023-09-30T10:31:18.839Z,19.07
2023-09-30T10:32:18.699Z,19.01
2023-09-30T10:33:18.677Z,18.93
2023-09-30T10:34:18.639Z,19.07
2023-09-30T10:35:18.642Z,19.13
2023-09-30T10:36:18.628Z,19.12
2023-09-30T10:37:18.633Z,19.02
2023-09-30T10:38:18.595Z,18.90
2023-09-30T10:39:18.593Z,18.76
2023-09-30T10:40:18.599Z,18.78
2023-09-30T10:41:18.642Z,18.71
2023-09-30T10:42:18.573Z,18.74
2023-09-30T10:43:18.556Z,18.76
2023-09-30T10:44:18.524Z,18.82
2023-09-30T10:45:19.546Z,18.89
2023-09-30T10:46:18.563Z,18.90
2023-09-30T10:47:18.528Z,18.93
2023-09-30T10:48:18.482Z,18.90
2023-09-30T10:49:18.507Z,18.91
2023-09-30T10:50:18.460Z,18.82
2023-09-30T10:51:18.454Z,18.78
2023-09-30T10:52:18.457Z,18.83
2023-09-30T10:53:18.441Z,18.78
2023-09-30T10:54:18.411Z,18.69
2023-09-30T10:55:18.411Z,18.56
2023-09-30T10:56:18.378Z,18.72
2023-09-30T10:57:18.408Z,18.99
2023-09-30T10:58:18.361Z,19.38
2023-09-30T10:59:18.366Z,19.45
2023-09-30T11:33:59.233Z,19.67
2023-09-30T11:35:00.171Z,19.62
2023-09-30T11:36:00.210Z,19.67
2023-09-30T11:37:00.190Z,19.70
2023-09-30T11:38:00.127Z,19.70
2023-09-30T11:39:02.772Z,19.72
2023-09-30T11:40:00.206Z,19.78
2023-09-30T11:41:00.085Z,19.75
2023-09-30T11:42:00.116Z,19.71
2023-09-30T11:43:00.110Z,19.79
2023-09-30T11:44:00.060Z,19.83
2023-09-30T11:45:00.034Z,19.94
2023-09-30T11:46:00.125Z,20.02
2023-09-30T11:47:00.063Z,20.16
2023-09-30T11:48:00.032Z,20.08
2023-09-30T11:49:00.370Z,20.05
2023-09-30T11:49:59.986Z,19.97
2023-09-30T11:51:00.000Z,19.95
2023-09-30T11:52:00.135Z,19.94
2023-09-30T11:52:59.945Z,19.87
2023-09-30T11:53:59.941Z,19.82
2023-09-30T11:54:59.949Z,19.85
2023-09-30T11:55:59.953Z,19.80
2023-09-30T11:56:59.898Z,19.83
2023-09-30T11:57:59.986Z,19.82
2023-09-30T11:59:00.231Z,19.83
2023-09-30T11:59:59.872Z,19.87
2023-09-30T12:00:59.882Z,19.89
2023-09-30T12:02:13.810Z,19.92
2023-09-30T12:02:59.922Z,20.00
2023-09-30T12:03:59.879Z,19.87
2023-09-30T12:04:59.827Z,19.86
2023-09-30T12:05:59.803Z,19.92
2023-09-30T12:06:59.819Z,19.94
2023-09-30T12:07:59.814Z,19.90
2023-09-30T12:09:00.070Z,19.79
2023-09-30T12:09:59.812Z,19.72
2023-09-30T12:10:59.744Z,19.78
2023-09-30T12:11:59.820Z,19.86
2023-09-30T12:12:59.761Z,19.94
2023-09-30T12:13:59.708Z,19.98
2023-09-30T12:14:59.728Z,20.04
2023-09-30T12:15:59.745Z,20.07
2023-09-30T12:16:59.767Z,20.10
2023-09-30T12:17:59.716Z,20.16
2023-09-30T12:18:59.969Z,20.08
2023-09-30T12:19:59.645Z,20.08
2023-09-30T12:20:59.622Z,20.08
2023-09-30T12:21:59.700Z,20.07
2023-09-30T12:22:59.636Z,20.04
2023-09-30T12:23:59.597Z,20.08
2023-09-30T12:24:59.626Z,20.01
2023-09-30T12:26:12.928Z,19.98
2023-09-30T12:26:59.575Z,19.95
2023-09-30T12:27:59.623Z,19.89
2023-09-30T12:28:59.883Z,19.87
2023-09-30T12:29:59.532Z,19.89
2023-09-30T12:30:59.562Z,19.83
2023-09-30T12:31:59.576Z,19.80
2023-09-30T12:32:59.564Z,19.82
2023-09-30T12:33:59.543Z,19.83
2023-09-30T12:34:59.475Z,19.87
2023-09-30T12:35:59.456Z,19.92
2023-09-30T12:36:59.513Z,19.95
2023-09-30T12:38:00.035Z,20.00
2023-09-30T12:38:59.652Z,19.97
2023-09-30T12:39:59.491Z,19.95
2023-09-30T12:40:59.411Z,20.00
2023-09-30T12:41:59.385Z,20.02
2023-09-30T12:42:59.447Z,20.02
2023-09-30T12:43:59.373Z,20.01
2023-09-30T12:44:59.400Z,20.07
2023-09-30T12:45:59.433Z,20.05
2023-09-30T12:47:00.555Z,20.04
2023-09-30T12:47:59.411Z,20.01
2023-09-30T12:48:59.585Z,20.02
2023-09-30T12:49:59.291Z,20.01
2023-09-30T12:50:59.286Z,19.94
2023-09-30T12:51:59.332Z,19.92
2023-09-30T12:52:59.294Z,19.92
2023-09-30T12:53:59.267Z,19.95
2023-09-30T12:54:59.274Z,20.00
2023-09-30T12:55:59.238Z,20.05
2023-09-30T12:56:59.229Z,20.08
2023-09-30T12:57:59.253Z,20.12
2023-09-30T12:58:59.502Z,20.17
2023-09-30T12:59:59.184Z,20.16
2023-09-30T13:01:08.071Z,20.15
2023-09-30T13:01:59.185Z,20.17
2023-09-30T13:02:59.199Z,20.13
2023-09-30T13:03:59.224Z,20.15
2023-09-30T13:04:59.195Z,20.08
2023-09-30T13:05:59.124Z,20.01
2023-09-30T13:06:59.156Z,19.97
2023-09-30T13:07:59.093Z,19.94
2023-09-30T13:08:59.320Z,19.98
2023-09-30T13:09:59.145Z,19.98
2023-09-30T13:10:59.105Z,19.95
2023-09-30T13:11:59.055Z,19.98
2023-09-30T13:12:59.084Z,19.94
2023-09-30T13:13:59.078Z,19.94
2023-09-30T13:14:59.030Z,19.94
2023-09-30T13:15:59.139Z,19.95
2023-09-30T13:16:59.050Z,19.97
2023-09-30T13:17:59.044Z,20.00
2023-09-30T13:18:59.212Z,20.02
2023-09-30T13:19:58.994Z,20.08
2023-09-30T13:20:58.962Z,20.12
2023-09-30T13:21:58.980Z,20.22
2023-09-30T13:22:58.952Z,20.23
2023-09-30T13:23:58.930Z,20.27
2023-09-30T13:24:59.072Z,20.25
2023-09-30T13:25:58.896Z,20.20
2023-09-30T13:26:58.904Z,20.23